sensor_id;sensor_type;location;lat;lon;timestamp;pressure;altitude;pressure_sealevel;temperature;humidity
72794;BME280;63436;26.334;50.194;2023-04-07T00:01:55;101094.39;;;27.18;32.60
72794;BME280;63436;26.334;50.194;2023-04-07T00:04:21;101093.41;;;26.98;32.57
72794;BME280;63436;26.334;50.194;2023-04-07T00:06:46;101097.77;;;27.42;32.18
72794;BME280;63436;26.334;50.194;2023-04-07T00:09:11;101097.53;;;27.56;31.46
72794;BME280;63436;26.334;50.194;2023-04-07T00:11:37;101092.79;;;27.25;32.02
72794;BME280;63436;26.334;50.194;2023-04-07T00:14:02;101090.79;;;27.33;32.30
72794;BME280;63436;26.334;50.194;2023-04-07T00:16:27;101089.26;;;26.88;32.29
72794;BME280;63436;26.334;50.194;2023-04-07T00:18:53;101086.67;;;27.17;31.95
72794;BME280;63436;26.334;50.194;2023-04-07T00:21:18;101088.66;;;27.09;31.73
72794;BME280;63436;26.334;50.194;2023-04-07T00:23:44;101091.11;;;26.90;31.43
72794;BME280;63436;26.334;50.194;2023-04-07T00:26:09;101091.24;;;27.08;31.25
72794;BME280;63436;26.334;50.194;2023-04-07T00:28:35;101091.24;;;27.52;31.13
72794;BME280;63436;26.334;50.194;2023-04-07T00:31:01;101087.11;;;27.58;30.79
72794;BME280;63436;26.334;50.194;2023-04-07T00:33:26;101084.49;;;26.70;31.18
72794;BME280;63436;26.334;50.194;2023-04-07T00:35:52;101084.54;;;27.54;30.02
72794;BME280;63436;26.334;50.194;2023-04-07T00:38:17;101087.38;;;27.54;30.37
72794;BME280;63436;26.334;50.194;2023-04-07T00:40:43;101089.10;;;27.27;30.41
72794;BME280;63436;26.334;50.194;2023-04-07T00:43:08;101085.09;;;26.81;30.69
72794;BME280;63436;26.334;50.194;2023-04-07T00:45:36;101083.71;;;27.19;30.44
72794;BME280;63436;26.334;50.194;2023-04-07T00:48:00;101085.84;;;27.97;29.56
72794;BME280;63436;26.334;50.194;2023-04-07T00:50:25;101089.77;;;28.14;29.40
72794;BME280;63436;26.334;50.194;2023-04-07T00:52:51;101099.09;;;28.42;29.29
72794;BME280;63436;26.334;50.194;2023-04-07T00:55:16;101107.37;;;28.62;29.45
72794;BME280;63436;26.334;50.194;2023-04-07T00:57:41;101116.09;;;28.87;29.82
72794;BME280;63436;26.334;50.194;2023-04-07T01:00:08;101121.20;;;27.53;31.07
72794;BME280;63436;26.334;50.194;2023-04-07T01:02:39;101124.01;;;27.17;31.85
72794;BME280;63436;26.334;50.194;2023-04-07T01:05:06;101125.78;;;27.35;31.70
72794;BME280;63436;26.334;50.194;2023-04-07T01:07:27;101124.25;;;27.20;31.78
72794;BME280;63436;26.334;50.194;2023-04-07T01:09:54;101125.27;;;26.90;31.86
72794;BME280;63436;26.334;50.194;2023-04-07T01:12:22;101123.16;;;26.70;32.16
72794;BME280;63436;26.334;50.194;2023-04-07T01:14:46;101123.19;;;27.03;31.88
72794;BME280;63436;26.334;50.194;2023-04-07T01:17:05;101122.96;;;27.14;31.97
72794;BME280;63436;26.334;50.194;2023-04-07T01:19:35;101118.21;;;27.19;31.94
72794;BME280;63436;26.334;50.194;2023-04-07T01:21:57;101120.77;;;26.79;32.18
72794;BME280;63436;26.334;50.194;2023-04-07T01:24:41;101124.50;;;27.07;32.25
72794;BME280;63436;26.334;50.194;2023-04-07T01:26:46;101128.21;;;26.86;32.34
72794;BME280;63436;26.334;50.194;2023-04-07T01:31:39;101131.48;;;26.78;32.68
72794;BME280;63436;26.334;50.194;2023-04-07T01:34:03;101133.24;;;27.37;32.56
72794;BME280;63436;26.334;50.194;2023-04-07T01:36:28;101133.89;;;27.47;32.36
72794;BME280;63436;26.334;50.194;2023-04-07T01:38:54;101131.03;;;27.31;32.43
72794;BME280;63436;26.334;50.194;2023-04-07T01:41:19;101133.11;;;27.15;33.17
72794;BME280;63436;26.334;50.194;2023-04-07T01:43:50;101138.35;;;26.89;33.19
72794;BME280;63436;26.334;50.194;2023-04-07T01:46:10;101143.67;;;26.89;33.32
72794;BME280;63436;26.334;50.194;2023-04-07T01:48:35;101148.17;;;27.52;32.67
72794;BME280;63436;26.334;50.194;2023-04-07T01:51:00;101155.75;;;27.20;32.69
72794;BME280;63436;26.334;50.194;2023-04-07T01:53:26;101164.30;;;27.21;32.82
72794;BME280;63436;26.334;50.194;2023-04-07T01:55:51;101170.23;;;27.25;32.66
72794;BME280;63436;26.334;50.194;2023-04-07T01:58:17;101176.27;;;27.14;32.96
72794;BME280;63436;26.334;50.194;2023-04-07T02:00:43;101177.99;;;27.37;32.78
72794;BME280;63436;26.334;50.194;2023-04-07T02:03:12;101178.87;;;27.38;32.73
72794;BME280;63436;26.334;50.194;2023-04-07T02:05:35;101188.21;;;26.78;32.97
72794;BME280;63436;26.334;50.194;2023-04-07T02:08:02;101191.78;;;26.81;33.07
72794;BME280;63436;26.334;50.194;2023-04-07T02:10:26;101198.63;;;26.33;33.10
72794;BME280;63436;26.334;50.194;2023-04-07T02:12:51;101202.21;;;26.28;33.12
72794;BME280;63436;26.334;50.194;2023-04-07T02:15:15;101201.48;;;26.50;33.24
72794;BME280;63436;26.334;50.194;2023-04-07T02:17:45;101206.00;;;26.76;33.39
72794;BME280;63436;26.334;50.194;2023-04-07T02:20:08;101210.19;;;26.92;33.51
72794;BME280;63436;26.334;50.194;2023-04-07T02:22:33;101214.54;;;26.45;33.82
72794;BME280;63436;26.334;50.194;2023-04-07T02:24:58;101220.45;;;26.61;34.02
72794;BME280;63436;26.334;50.194;2023-04-07T02:27:23;101220.15;;;27.85;32.51
72794;BME280;63436;26.334;50.194;2023-04-07T02:29:48;101228.81;;;28.10;31.92
72794;BME280;63436;26.334;50.194;2023-04-07T02:32:13;101234.54;;;27.79;32.03
72794;BME280;63436;26.334;50.194;2023-04-07T02:34:38;101246.79;;;27.72;31.87
72794;BME280;63436;26.334;50.194;2023-04-07T02:37:04;101254.85;;;27.34;32.06
72794;BME280;63436;26.334;50.194;2023-04-07T02:39:29;101258.99;;;27.03;32.69
72794;BME280;63436;26.334;50.194;2023-04-07T02:41:55;101266.85;;;26.39;33.60
72794;BME280;63436;26.334;50.194;2023-04-07T02:44:20;101276.65;;;27.12;32.70
72794;BME280;63436;26.334;50.194;2023-04-07T02:46:45;101286.65;;;27.81;31.67
72794;BME280;63436;26.334;50.194;2023-04-07T02:49:11;101296.54;;;27.37;31.88
72794;BME280;63436;26.334;50.194;2023-04-07T02:51:37;101308.63;;;27.52;32.03
72794;BME280;63436;26.334;50.194;2023-04-07T02:54:02;101316.46;;;27.61;31.71
72794;BME280;63436;26.334;50.194;2023-04-07T02:56:27;101323.24;;;27.18;32.46
72794;BME280;63436;26.334;50.194;2023-04-07T02:58:53;101322.13;;;26.97;32.51
72794;BME280;63436;26.334;50.194;2023-04-07T03:01:18;101326.69;;;27.32;32.32
72794;BME280;63436;26.334;50.194;2023-04-07T03:03:43;101333.51;;;27.59;31.60
72794;BME280;63436;26.334;50.194;2023-04-07T03:06:08;101335.47;;;27.76;31.58
72794;BME280;63436;26.334;50.194;2023-04-07T03:08:33;101342.02;;;27.08;32.54
72794;BME280;63436;26.334;50.194;2023-04-07T03:10:59;101344.43;;;26.84;32.82
72794;BME280;63436;26.334;50.194;2023-04-07T03:13:24;101348.50;;;27.46;31.95
72794;BME280;63436;26.334;50.194;2023-04-07T03:15:50;101348.27;;;27.61;31.42
72794;BME280;63436;26.334;50.194;2023-04-07T03:18:15;101352.87;;;27.38;32.42
72794;BME280;63436;26.334;50.194;2023-04-07T03:20:42;101356.93;;;26.86;32.95
72794;BME280;63436;26.334;50.194;2023-04-07T03:23:06;101368.37;;;27.50;32.27
72794;BME280;63436;26.334;50.194;2023-04-07T03:25:33;101373.43;;;28.04;31.46
72794;BME280;63436;26.334;50.194;2023-04-07T03:27:59;101377.09;;;28.13;31.63
72794;BME280;63436;26.334;50.194;2023-04-07T03:30:24;101375.28;;;28.33;31.36
72794;BME280;63436;26.334;50.194;2023-04-07T03:32:49;101380.41;;;27.96;31.87
72794;BME280;63436;26.334;50.194;2023-04-07T03:35:14;101387.65;;;28.57;30.42
72794;BME280;63436;26.334;50.194;2023-04-07T03:37:39;101395.39;;;28.91;30.54
72794;BME280;63436;26.334;50.194;2023-04-07T03:40:06;101398.60;;;28.39;30.69
72794;BME280;63436;26.334;50.194;2023-04-07T03:42:30;101399.39;;;28.32;31.09
72794;BME280;63436;26.334;50.194;2023-04-07T03:44:55;101403.27;;;28.12;30.45
72794;BME280;63436;26.334;50.194;2023-04-07T03:47:20;101407.21;;;28.17;29.65
72794;BME280;63436;26.334;50.194;2023-04-07T03:49:46;101407.37;;;27.55;29.30
72794;BME280;63436;26.334;50.194;2023-04-07T03:52:12;101406.18;;;27.93;28.74
72794;BME280;63436;26.334;50.194;2023-04-07T03:54:37;101408.58;;;28.01;28.37
72794;BME280;63436;26.334;50.194;2023-04-07T03:57:03;101406.70;;;28.34;28.49
72794;BME280;63436;26.334;50.194;2023-04-07T03:59:28;101408.11;;;28.76;27.79
72794;BME280;63436;26.334;50.194;2023-04-07T04:01:53;101409.07;;;28.43;27.26
72794;BME280;63436;26.334;50.194;2023-04-07T04:04:19;101411.19;;;28.80;26.62
72794;BME280;63436;26.334;50.194;2023-04-07T04:06:44;101416.47;;;28.88;27.25
72794;BME280;63436;26.334;50.194;2023-04-07T04:09:10;101419.71;;;26.51;29.67
72794;BME280;63436;26.334;50.194;2023-04-07T04:11:36;101426.09;;;25.89;29.46
72794;BME280;63436;26.334;50.194;2023-04-07T04:14:01;101432.74;;;28.59;26.18
72794;BME280;63436;26.334;50.194;2023-04-07T04:16:26;101427.43;;;29.76;24.45
72794;BME280;63436;26.334;50.194;2023-04-07T04:18:52;101423.11;;;29.74;23.70
72794;BME280;63436;26.334;50.194;2023-04-07T04:21:17;101423.27;;;29.57;24.50
72794;BME280;63436;26.334;50.194;2023-04-07T04:23:43;101424.11;;;29.35;24.31
72794;BME280;63436;26.334;50.194;2023-04-07T04:26:08;101425.75;;;28.96;24.62
72794;BME280;63436;26.334;50.194;2023-04-07T04:28:33;101428.21;;;29.46;23.46
72794;BME280;63436;26.334;50.194;2023-04-07T04:30:59;101433.83;;;30.56;21.72
72794;BME280;63436;26.334;50.194;2023-04-07T04:33:24;101435.18;;;30.52;20.22
72794;BME280;63436;26.334;50.194;2023-04-07T04:35:50;101439.41;;;31.19;19.76
72794;BME280;63436;26.334;50.194;2023-04-07T04:38:15;101442.66;;;30.70;19.80
72794;BME280;63436;26.334;50.194;2023-04-07T04:40:40;101446.92;;;31.45;19.32
72794;BME280;63436;26.334;50.194;2023-04-07T04:43:05;101448.71;;;31.43;19.79
72794;BME280;63436;26.334;50.194;2023-04-07T04:45:30;101459.43;;;30.46;20.38
72794;BME280;63436;26.334;50.194;2023-04-07T04:47:56;101468.54;;;30.68;19.56
72794;BME280;63436;26.334;50.194;2023-04-07T04:50:21;101475.14;;;31.39;17.79
72794;BME280;63436;26.334;50.194;2023-04-07T04:52:46;101482.19;;;32.15;17.06
72794;BME280;63436;26.334;50.194;2023-04-07T04:55:12;101486.10;;;31.91;17.26
72794;BME280;63436;26.334;50.194;2023-04-07T04:57:38;101484.76;;;31.93;16.33
72794;BME280;63436;26.334;50.194;2023-04-07T05:00:05;101480.40;;;31.87;16.59
72794;BME280;63436;26.334;50.194;2023-04-07T05:02:30;101474.78;;;31.00;15.67
72794;BME280;63436;26.334;50.194;2023-04-07T05:04:55;101473.08;;;31.11;15.75
72794;BME280;63436;26.334;50.194;2023-04-07T05:07:21;101476.91;;;31.73;15.83
72794;BME280;63436;26.334;50.194;2023-04-07T05:09:46;101483.84;;;32.01;15.38
72794;BME280;63436;26.334;50.194;2023-04-07T05:12:12;101481.54;;;31.29;15.63
72794;BME280;63436;26.334;50.194;2023-04-07T05:14:37;101478.30;;;31.41;16.39
72794;BME280;63436;26.334;50.194;2023-04-07T05:17:04;101479.98;;;32.12;14.28
72794;BME280;63436;26.334;50.194;2023-04-07T05:19:29;101482.28;;;31.96;14.62
72794;BME280;63436;26.334;50.194;2023-04-07T05:21:53;101489.26;;;32.08;13.73
72794;BME280;63436;26.334;50.194;2023-04-07T05:24:19;101490.78;;;31.78;14.49
72794;BME280;63436;26.334;50.194;2023-04-07T05:26:45;101491.10;;;31.44;14.13
72794;BME280;63436;26.334;50.194;2023-04-07T05:29:10;101494.35;;;31.43;14.05
72794;BME280;63436;26.334;50.194;2023-04-07T05:31:35;101494.88;;;31.46;13.39
72794;BME280;63436;26.334;50.194;2023-04-07T05:34:01;101499.70;;;31.44;15.00
72794;BME280;63436;26.334;50.194;2023-04-07T05:36:26;101503.62;;;31.16;14.34
72794;BME280;63436;26.334;50.194;2023-04-07T05:38:52;101508.60;;;30.95;15.19
72794;BME280;63436;26.334;50.194;2023-04-07T05:41:17;101509.90;;;31.15;14.08
72794;BME280;63436;26.334;50.194;2023-04-07T05:43:43;101506.91;;;31.29;13.18
72794;BME280;63436;26.334;50.194;2023-04-07T05:46:18;101504.74;;;31.54;13.13
72794;BME280;63436;26.334;50.194;2023-04-07T05:48:34;101506.95;;;31.68;13.94
72794;BME280;63436;26.334;50.194;2023-04-07T05:51:00;101514.68;;;31.79;12.24
72794;BME280;63436;26.334;50.194;2023-04-07T05:53:25;101526.45;;;32.14;13.12
72794;BME280;63436;26.334;50.194;2023-04-07T05:55:50;101533.45;;;31.73;13.13
72794;BME280;63436;26.334;50.194;2023-04-07T05:58:16;101544.36;;;31.52;12.38
72794;BME280;63436;26.334;50.194;2023-04-07T06:00:41;101548.59;;;31.91;13.21
72794;BME280;63436;26.334;50.194;2023-04-07T06:03:07;101551.39;;;31.16;14.18
72794;BME280;63436;26.334;50.194;2023-04-07T06:05:33;101542.03;;;32.06;13.23
72794;BME280;63436;26.334;50.194;2023-04-07T06:07:58;101539.81;;;31.00;13.84
72794;BME280;63436;26.334;50.194;2023-04-07T06:10:24;101532.30;;;31.72;13.31
72794;BME280;63436;26.334;50.194;2023-04-07T06:12:49;101530.32;;;32.11;14.08
72794;BME280;63436;26.334;50.194;2023-04-07T06:15:15;101533.03;;;30.94;14.42
72794;BME280;63436;26.334;50.194;2023-04-07T06:17:40;101531.69;;;30.55;14.46
72794;BME280;63436;26.334;50.194;2023-04-07T06:20:18;101533.50;;;30.39;14.28
72794;BME280;63436;26.334;50.194;2023-04-07T06:22:32;101528.18;;;31.36;13.49
72794;BME280;63436;26.334;50.194;2023-04-07T06:24:57;101519.37;;;31.46;14.22
72794;BME280;63436;26.334;50.194;2023-04-07T06:27:22;101520.27;;;30.93;14.84
72794;BME280;63436;26.334;50.194;2023-04-07T06:29:48;101523.10;;;29.48;14.89
72794;BME280;63436;26.334;50.194;2023-04-07T06:32:14;101523.67;;;31.87;15.53
72794;BME280;63436;26.334;50.194;2023-04-07T06:34:39;101527.95;;;31.08;15.29
72794;BME280;63436;26.334;50.194;2023-04-07T06:37:04;101534.24;;;32.32;14.19
72794;BME280;63436;26.334;50.194;2023-04-07T06:39:30;101537.97;;;28.44;17.33
72794;BME280;63436;26.334;50.194;2023-04-07T06:41:55;101533.29;;;30.53;16.09
72794;BME280;63436;26.334;50.194;2023-04-07T06:44:21;101534.20;;;32.49;13.74
72794;BME280;63436;26.334;50.194;2023-04-07T06:46:46;101531.10;;;32.76;13.28
72794;BME280;63436;26.334;50.194;2023-04-07T06:49:12;101530.30;;;32.03;14.51
72794;BME280;63436;26.334;50.194;2023-04-07T06:51:37;101530.62;;;31.75;15.26
72794;BME280;63436;26.334;50.194;2023-04-07T06:54:03;101532.33;;;32.08;14.98
72794;BME280;63436;26.334;50.194;2023-04-07T06:56:29;101530.86;;;32.04;13.81
72794;BME280;63436;26.334;50.194;2023-04-07T06:58:54;101528.44;;;32.49;13.21
72794;BME280;63436;26.334;50.194;2023-04-07T07:01:20;101522.92;;;33.12;13.32
72794;BME280;63436;26.334;50.194;2023-04-07T07:03:51;101522.69;;;32.05;13.83
72794;BME280;63436;26.334;50.194;2023-04-07T07:06:11;101526.38;;;32.60;13.36
72794;BME280;63436;26.334;50.194;2023-04-07T07:08:38;101527.22;;;30.61;14.79
72794;BME280;63436;26.334;50.194;2023-04-07T07:11:17;101529.48;;;33.14;14.42
72794;BME280;63436;26.334;50.194;2023-04-07T07:13:27;101527.42;;;31.22;17.15
72794;BME280;63436;26.334;50.194;2023-04-07T07:15:58;101523.25;;;31.15;17.72
72794;BME280;63436;26.334;50.194;2023-04-07T07:18:34;101523.93;;;30.33;18.58
72794;BME280;63436;26.334;50.194;2023-04-07T07:20:44;101525.20;;;30.47;18.08
72794;BME280;63436;26.334;50.194;2023-04-07T07:23:10;101523.72;;;31.46;19.39
72794;BME280;63436;26.334;50.194;2023-04-07T07:25:36;101519.69;;;31.29;18.67
72794;BME280;63436;26.334;50.194;2023-04-07T07:28:01;101513.51;;;31.76;18.94
72794;BME280;63436;26.334;50.194;2023-04-07T07:30:27;101515.96;;;31.33;19.09
72794;BME280;63436;26.334;50.194;2023-04-07T07:32:57;101511.51;;;30.28;18.58
72794;BME280;63436;26.334;50.194;2023-04-07T07:35:18;101515.60;;;32.48;16.59
72794;BME280;63436;26.334;50.194;2023-04-07T07:37:43;101519.32;;;32.37;20.02
72794;BME280;63436;26.334;50.194;2023-04-07T07:40:09;101511.56;;;31.53;21.84
72794;BME280;63436;26.334;50.194;2023-04-07T07:42:34;101516.43;;;33.22;21.08
72794;BME280;63436;26.334;50.194;2023-04-07T07:45:00;101514.09;;;32.67;18.13
72794;BME280;63436;26.334;50.194;2023-04-07T07:47:25;101512.45;;;30.04;17.85
72794;BME280;63436;26.334;50.194;2023-04-07T07:49:50;101509.25;;;30.64;16.78
72794;BME280;63436;26.334;50.194;2023-04-07T07:52:16;101513.84;;;30.14;21.33
72794;BME280;63436;26.334;50.194;2023-04-07T07:57:06;101508.33;;;30.61;20.43
72794;BME280;63436;26.334;50.194;2023-04-07T07:59:33;101509.00;;;30.10;21.14
72794;BME280;63436;26.334;50.194;2023-04-07T08:01:58;101502.05;;;30.94;21.97
72794;BME280;63436;26.334;50.194;2023-04-07T08:04:23;101505.73;;;30.33;21.34
72794;BME280;63436;26.334;50.194;2023-04-07T08:06:48;101503.46;;;29.63;20.54
72794;BME280;63436;26.334;50.194;2023-04-07T08:09:13;101501.12;;;31.88;17.58
72794;BME280;63436;26.334;50.194;2023-04-07T08:11:38;101500.17;;;31.38;18.15
72794;BME280;63436;26.334;50.194;2023-04-07T08:14:04;101499.31;;;31.49;17.58
72794;BME280;63436;26.334;50.194;2023-04-07T08:16:29;101501.31;;;30.96;17.92
72794;BME280;63436;26.334;50.194;2023-04-07T08:18:54;101502.53;;;32.41;16.61
72794;BME280;63436;26.334;50.194;2023-04-07T08:21:19;101498.36;;;30.77;17.57
72794;BME280;63436;26.334;50.194;2023-04-07T08:23:45;101497.79;;;31.01;17.12
72794;BME280;63436;26.334;50.194;2023-04-07T08:26:10;101491.37;;;30.00;17.04
72794;BME280;63436;26.334;50.194;2023-04-07T08:28:37;101492.39;;;31.56;17.09
72794;BME280;63436;26.334;50.194;2023-04-07T08:31:01;101485.86;;;32.65;15.66
72794;BME280;63436;26.334;50.194;2023-04-07T08:33:27;101488.93;;;31.29;18.33
72794;BME280;63436;26.334;50.194;2023-04-07T08:35:52;101488.64;;;32.24;18.07
72794;BME280;63436;26.334;50.194;2023-04-07T08:38:18;101483.17;;;33.27;15.46
72794;BME280;63436;26.334;50.194;2023-04-07T08:40:44;101484.15;;;31.68;18.83
72794;BME280;63436;26.334;50.194;2023-04-07T08:43:09;101479.56;;;31.56;17.90
72794;BME280;63436;26.334;50.194;2023-04-07T08:45:41;101479.16;;;30.62;16.91
72794;BME280;63436;26.334;50.194;2023-04-07T08:48:05;101479.46;;;31.59;15.59
72794;BME280;63436;26.334;50.194;2023-04-07T08:50:26;101473.24;;;32.54;15.46
72794;BME280;63436;26.334;50.194;2023-04-07T08:52:54;101473.03;;;31.90;17.37
72794;BME280;63436;26.334;50.194;2023-04-07T08:55:16;101470.23;;;32.23;17.31
72794;BME280;63436;26.334;50.194;2023-04-07T08:57:43;101466.06;;;32.45;16.86
72794;BME280;63436;26.334;50.194;2023-04-07T09:00:09;101462.40;;;32.65;15.58
72794;BME280;63436;26.334;50.194;2023-04-07T09:02:39;101467.59;;;31.59;16.44
72794;BME280;63436;26.334;50.194;2023-04-07T09:04:58;101460.66;;;31.08;16.12
72794;BME280;63436;26.334;50.194;2023-04-07T09:07:24;101459.09;;;30.82;15.62
72794;BME280;63436;26.334;50.194;2023-04-07T09:09:50;101454.60;;;30.96;17.05
72794;BME280;63436;26.334;50.194;2023-04-07T09:12:15;101448.62;;;32.99;15.05
72794;BME280;63436;26.334;50.194;2023-04-07T09:14:40;101452.44;;;31.06;16.04
72794;BME280;63436;26.334;50.194;2023-04-07T09:17:06;101452.89;;;32.20;15.08
72794;BME280;63436;26.334;50.194;2023-04-07T09:21:57;101455.39;;;32.25;15.45
72794;BME280;63436;26.334;50.194;2023-04-07T09:24:23;101455.88;;;31.24;14.60
72794;BME280;63436;26.334;50.194;2023-04-07T09:26:48;101453.45;;;29.41;13.29
72794;BME280;63436;26.334;50.194;2023-04-07T09:29:18;101455.57;;;30.13;13.28
72794;BME280;63436;26.334;50.194;2023-04-07T09:31:44;101450.26;;;32.84;11.15
72794;BME280;63436;26.334;50.194;2023-04-07T09:36:36;101446.64;;;31.11;12.40
72794;BME280;63436;26.334;50.194;2023-04-07T09:38:55;101441.16;;;30.28;14.07
72794;BME280;63436;26.334;50.194;2023-04-07T09:41:26;101438.42;;;32.23;12.31
72794;BME280;63436;26.334;50.194;2023-04-07T09:43:46;101437.15;;;31.21;14.51
72794;BME280;63436;26.334;50.194;2023-04-07T09:46:14;101435.31;;;29.88;16.80
72794;BME280;63436;26.334;50.194;2023-04-07T09:48:38;101433.57;;;31.11;16.06
72794;BME280;63436;26.334;50.194;2023-04-07T09:51:08;101435.75;;;32.11;15.45
72794;BME280;63436;26.334;50.194;2023-04-07T09:53:44;101435.27;;;31.59;14.01
72794;BME280;63436;26.334;50.194;2023-04-07T09:55:54;101433.96;;;31.82;14.16
72794;BME280;63436;26.334;50.194;2023-04-07T09:58:20;101424.55;;;30.65;14.09
72794;BME280;63436;26.334;50.194;2023-04-07T10:00:45;101420.43;;;31.90;14.29
72794;BME280;63436;26.334;50.194;2023-04-07T10:03:11;101414.41;;;30.24;14.48
72794;BME280;63436;26.334;50.194;2023-04-07T10:05:37;101411.50;;;30.96;13.28
72794;BME280;63436;26.334;50.194;2023-04-07T10:08:02;101405.90;;;30.06;13.74
72794;BME280;63436;26.334;50.194;2023-04-07T10:10:28;101400.99;;;31.90;13.62
72794;BME280;63436;26.334;50.194;2023-04-07T10:12:53;101401.57;;;31.39;13.84
72794;BME280;63436;26.334;50.194;2023-04-07T10:15:18;101400.50;;;30.71;14.13
72794;BME280;63436;26.334;50.194;2023-04-07T10:17:46;101400.48;;;31.14;13.86
72794;BME280;63436;26.334;50.194;2023-04-07T10:20:10;101397.26;;;31.86;13.84
72794;BME280;63436;26.334;50.194;2023-04-07T10:22:36;101397.26;;;31.38;13.55
72794;BME280;63436;26.334;50.194;2023-04-07T10:25:07;101395.87;;;29.17;14.51
72794;BME280;63436;26.334;50.194;2023-04-07T10:27:31;101403.23;;;32.04;13.72
72794;BME280;63436;26.334;50.194;2023-04-07T10:29:51;101401.30;;;30.70;13.55
72794;BME280;63436;26.334;50.194;2023-04-07T10:32:16;101396.51;;;31.37;13.93
72794;BME280;63436;26.334;50.194;2023-04-07T10:37:11;101385.86;;;32.49;13.07
72794;BME280;63436;26.334;50.194;2023-04-07T10:39:32;101390.35;;;32.20;13.24
72794;BME280;63436;26.334;50.194;2023-04-07T10:41:57;101388.67;;;31.52;14.30
72794;BME280;63436;26.334;50.194;2023-04-07T10:44:44;101385.04;;;30.95;14.61
72794;BME280;63436;26.334;50.194;2023-04-07T10:49:14;101377.83;;;31.43;14.82
72794;BME280;63436;26.334;50.194;2023-04-07T10:51:39;101374.37;;;31.28;15.02
72794;BME280;63436;26.334;50.194;2023-04-07T11:01:20;101354.73;;;30.87;15.05
72794;BME280;63436;26.334;50.194;2023-04-07T11:03:56;101348.39;;;32.01;15.18
72794;BME280;63436;26.334;50.194;2023-04-07T11:06:12;101348.84;;;31.74;16.17
72794;BME280;63436;26.334;50.194;2023-04-07T11:08:37;101346.80;;;32.73;15.88
72794;BME280;63436;26.334;50.194;2023-04-07T11:11:02;101347.89;;;31.30;16.26
72794;BME280;63436;26.334;50.194;2023-04-07T11:13:27;101340.10;;;32.04;15.46
72794;BME280;63436;26.334;50.194;2023-04-07T11:15:53;101341.44;;;31.56;16.54
72794;BME280;63436;26.334;50.194;2023-04-07T11:18:20;101345.09;;;30.19;17.35
72794;BME280;63436;26.334;50.194;2023-04-07T11:20:47;101341.62;;;32.43;16.11
72794;BME280;63436;26.334;50.194;2023-04-07T11:23:09;101339.75;;;31.95;16.68
72794;BME280;63436;26.334;50.194;2023-04-07T11:25:35;101344.34;;;31.10;17.68
72794;BME280;63436;26.334;50.194;2023-04-07T11:28:03;101340.22;;;32.05;17.65
72794;BME280;63436;26.334;50.194;2023-04-07T11:30:26;101338.00;;;31.54;18.20
72794;BME280;63436;26.334;50.194;2023-04-07T11:32:51;101342.41;;;31.04;18.98
72794;BME280;63436;26.334;50.194;2023-04-07T11:35:17;101337.90;;;31.67;18.59
72794;BME280;63436;26.334;50.194;2023-04-07T11:37:42;101335.78;;;31.65;18.14
72794;BME280;63436;26.334;50.194;2023-04-07T11:40:09;101331.57;;;32.36;17.60
72794;BME280;63436;26.334;50.194;2023-04-07T11:42:35;101333.16;;;31.54;18.36
72794;BME280;63436;26.334;50.194;2023-04-07T11:44:59;101330.97;;;30.45;18.32
72794;BME280;63436;26.334;50.194;2023-04-07T11:47:34;101324.05;;;32.25;16.67
72794;BME280;63436;26.334;50.194;2023-04-07T11:49:49;101324.68;;;32.01;17.21
72794;BME280;63436;26.334;50.194;2023-04-07T11:52:15;101325.28;;;31.84;17.01
72794;BME280;63436;26.334;50.194;2023-04-07T11:54:41;101320.54;;;31.68;17.59
72794;BME280;63436;26.334;50.194;2023-04-07T11:57:05;101324.66;;;31.92;17.76
72794;BME280;63436;26.334;50.194;2023-04-07T11:59:30;101330.62;;;30.03;18.67
72794;BME280;63436;26.334;50.194;2023-04-07T12:01:55;101322.30;;;31.16;17.71
72794;BME280;63436;26.334;50.194;2023-04-07T12:04:21;101322.75;;;31.00;18.09
72794;BME280;63436;26.334;50.194;2023-04-07T12:06:47;101312.40;;;31.48;18.77
72794;BME280;63436;26.334;50.194;2023-04-07T12:09:26;101313.72;;;29.63;19.31
72794;BME280;63436;26.334;50.194;2023-04-07T12:14:03;101310.01;;;32.58;18.00
72794;BME280;63436;26.334;50.194;2023-04-07T12:16:29;101318.08;;;31.01;18.79
72794;BME280;63436;26.334;50.194;2023-04-07T12:18:54;101317.55;;;30.66;18.86
72794;BME280;63436;26.334;50.194;2023-04-07T12:21:19;101314.61;;;30.62;18.46
72794;BME280;63436;26.334;50.194;2023-04-07T12:23:45;101310.35;;;30.00;19.22
72794;BME280;63436;26.334;50.194;2023-04-07T12:26:10;101310.67;;;30.32;18.66
72794;BME280;63436;26.334;50.194;2023-04-07T12:28:35;101306.09;;;31.82;17.83
72794;BME280;63436;26.334;50.194;2023-04-07T12:31:01;101304.96;;;29.46;19.40
72794;BME280;63436;26.334;50.194;2023-04-07T12:33:26;101305.91;;;31.25;17.86
72794;BME280;63436;26.334;50.194;2023-04-07T12:35:52;101307.49;;;31.41;18.33
72794;BME280;63436;26.334;50.194;2023-04-07T12:38:18;101311.79;;;31.22;19.80
72794;BME280;63436;26.334;50.194;2023-04-07T12:40:43;101311.82;;;31.67;19.94
72794;BME280;63436;26.334;50.194;2023-04-07T12:43:09;101318.17;;;30.02;21.76
72794;BME280;63436;26.334;50.194;2023-04-07T12:45:34;101317.97;;;31.25;20.44
72794;BME280;63436;26.334;50.194;2023-04-07T12:48:00;101312.80;;;32.09;20.59
72794;BME280;63436;26.334;50.194;2023-04-07T12:50:25;101314.62;;;31.23;21.82
72794;BME280;63436;26.334;50.194;2023-04-07T12:52:51;101312.86;;;31.17;21.68
72794;BME280;63436;26.334;50.194;2023-04-07T12:55:17;101315.36;;;30.67;21.07